KLM209 EHAM-LSGG
Flight info
| Callsign | KLM209 |
|---|---|
| Flight time | 1h 15m |
| Altitude | 35000 |
| Route | EDUPO Z739 MISGO DCT ASBON DCT TUSUK DCT KRH/N0462F340 DCT NATOR/N0462F350 DCT LUTIX DCT BENOT |
| Aircraft | B738/M-SDE2E3FGHIRWXY/LB1 |
Departure
| Time | 2026-05-06 12:20 |
|---|---|
| Airport | Amsterdam Airport Schiphol (EHAM) |
Arrival
| Time | 2026-05-06 13:35 |
|---|---|
| Airport | Geneva International Airport (LSGG) |
| Time | Latitude | Longitude | Altitude | Speed | Heading |
|---|---|---|---|---|---|
| 2026-05-06 11:54 | 52.30899 | 4.77238 | -2 ft | 0 kts | 2° |
| 2026-05-06 12:06 | 52.30887 | 4.77237 | -2 ft | 4 kts | 357° |
| 2026-05-06 12:06 | 52.30860 | 4.77242 | -2 ft | 4 kts | 4° |
| 2026-05-06 12:06 | 52.30846 | 4.77229 | -2 ft | 4 kts | 61° |
| 2026-05-06 12:06 | 52.30841 | 4.77204 | -2 ft | 0 kts | 74° |
| 2026-05-06 12:10 | 52.30843 | 4.77225 | -2 ft | 4 kts | 83° |
| 2026-05-06 12:10 | 52.30842 | 4.77294 | -2 ft | 7 kts | 94° |
| 2026-05-06 12:10 | 52.30838 | 4.77385 | -2 ft | 9 kts | 94° |
| 2026-05-06 12:11 | 52.30814 | 4.77463 | -2 ft | 8 kts | 165° |
| 2026-05-06 12:11 | 52.30756 | 4.77461 | -2 ft | 8 kts | 184° |
| 2026-05-06 12:11 | 52.30687 | 4.77455 | -2 ft | 13 kts | 183° |
| 2026-05-06 12:11 | 52.30609 | 4.77342 | -2 ft | 19 kts | 239° |
| 2026-05-06 12:12 | 52.30544 | 4.77171 | -2 ft | 19 kts | 238° |
| 2026-05-06 12:12 | 52.30473 | 4.76987 | -2 ft | 20 kts | 238° |
| 2026-05-06 12:12 | 52.30402 | 4.76801 | -2 ft | 19 kts | 238° |
| 2026-05-06 12:12 | 52.30336 | 4.76631 | -2 ft | 16 kts | 237° |
| 2026-05-06 12:13 | 52.30277 | 4.76478 | -2 ft | 16 kts | 237° |
| 2026-05-06 12:13 | 52.30219 | 4.76329 | -2 ft | 15 kts | 238° |
| 2026-05-06 12:13 | 52.30164 | 4.76183 | -2 ft | 15 kts | 238° |
| 2026-05-06 12:13 | 52.30112 | 4.76045 | -2 ft | 14 kts | 238° |
| 2026-05-06 12:14 | 52.30062 | 4.75914 | -2 ft | 13 kts | 238° |
| 2026-05-06 12:14 | 52.30014 | 4.75788 | -2 ft | 13 kts | 238° |
| 2026-05-06 12:14 | 52.29967 | 4.75665 | -2 ft | 13 kts | 238° |
| 2026-05-06 12:14 | 52.29920 | 4.75545 | -2 ft | 13 kts | 237° |
| 2026-05-06 12:15 | 52.29865 | 4.75404 | -2 ft | 16 kts | 237° |
| 2026-05-06 12:15 | 52.29833 | 4.75230 | -2 ft | 16 kts | 286° |
| 2026-05-06 12:15 | 52.29900 | 4.75085 | -2 ft | 16 kts | 311° |
| 2026-05-06 12:15 | 52.29972 | 4.74953 | -2 ft | 15 kts | 311° |
| 2026-05-06 12:16 | 52.30042 | 4.74826 | -1 ft | 15 kts | 311° |
| 2026-05-06 12:16 | 52.30107 | 4.74703 | 4 ft | 14 kts | 311° |
| 2026-05-06 12:16 | 52.30171 | 4.74585 | 9 ft | 14 kts | 311° |
| 2026-05-06 12:16 | 52.30234 | 4.74468 | 9 ft | 13 kts | 311° |
| 2026-05-06 12:17 | 52.30295 | 4.74353 | 6 ft | 15 kts | 311° |
| 2026-05-06 12:17 | 52.30371 | 4.74210 | -2 ft | 13 kts | 310° |
| 2026-05-06 12:17 | 52.30423 | 4.74098 | -2 ft | 12 kts | 289° |
| 2026-05-06 12:17 | 52.30406 | 4.73970 | -2 ft | 9 kts | 264° |
| 2026-05-06 12:18 | 52.30407 | 4.73926 | -2 ft | 1 kts | 273° |
| 2026-05-06 12:18 | 52.30407 | 4.73923 | -2 ft | 0 kts | 273° |
| 2026-05-06 12:18 | 52.30408 | 4.73908 | -2 ft | 7 kts | 273° |
| 2026-05-06 12:19 | 52.30416 | 4.73793 | -4 ft | 9 kts | 298° |
| 2026-05-06 12:19 | 52.30470 | 4.73760 | -3 ft | 9 kts | 2° |
| 2026-05-06 12:19 | 52.30601 | 4.73773 | -4 ft | 45 kts | 4° |
| 2026-05-06 12:19 | 52.31162 | 4.73825 | -3 ft | 115 kts | 3° |
| 2026-05-06 12:20 | 52.32150 | 4.73892 | 89 ft | 163 kts | 6° |
| 2026-05-06 12:20 | 52.33314 | 4.74017 | 820 ft | 168 kts | 8° |
| 2026-05-06 12:20 | 52.34428 | 4.74345 | 1794 ft | 162 kts | 24° |
| 2026-05-06 12:20 | 52.35479 | 4.75113 | 2411 ft | 177 kts | 26° |
| 2026-05-06 12:21 | 52.36677 | 4.76012 | 2713 ft | 200 kts | 26° |
| 2026-05-06 12:21 | 52.37955 | 4.77137 | 3106 ft | 214 kts | 39° |
| 2026-05-06 12:21 | 52.39053 | 4.78847 | 3737 ft | 224 kts | 46° |
| 2026-05-06 12:21 | 52.40132 | 4.80705 | 4259 ft | 237 kts | 46° |
| 2026-05-06 12:22 | 52.41296 | 4.82710 | 4989 ft | 247 kts | 47° |
| 2026-05-06 12:22 | 52.42188 | 4.85181 | 5814 ft | 254 kts | 72° |
| 2026-05-06 12:22 | 52.42425 | 4.88043 | 6587 ft | 259 kts | 88° |
| 2026-05-06 12:22 | 52.42421 | 4.91037 | 7242 ft | 270 kts | 89° |
| 2026-05-06 12:23 | 52.42418 | 4.94135 | 8005 ft | 272 kts | 88° |
| 2026-05-06 12:23 | 52.42268 | 4.97250 | 8716 ft | 281 kts | 105° |
| 2026-05-06 12:23 | 52.41302 | 5.00053 | 9449 ft | 288 kts | 132° |
| 2026-05-06 12:23 | 52.39733 | 5.02148 | 10131 ft | 295 kts | 144° |
| 2026-05-06 12:24 | 52.37985 | 5.04113 | 10382 ft | 317 kts | 145° |
| 2026-05-06 12:24 | 52.36103 | 5.06225 | 10551 ft | 339 kts | 145° |
| 2026-05-06 12:24 | 52.34108 | 5.08497 | 10753 ft | 359 kts | 144° |
| 2026-05-06 12:24 | 52.32170 | 5.11216 | 11091 ft | 373 kts | 134° |
| 2026-05-06 12:25 | 52.30439 | 5.14404 | 11734 ft | 377 kts | 130° |
| 2026-05-06 12:25 | 52.28735 | 5.17709 | 12374 ft | 382 kts | 130° |
| 2026-05-06 12:25 | 52.26985 | 5.21009 | 13062 ft | 387 kts | 131° |
| 2026-05-06 12:25 | 52.25187 | 5.24307 | 13760 ft | 391 kts | 132° |
| 2026-05-06 12:26 | 52.23440 | 5.27645 | 14454 ft | 392 kts | 128° |
| 2026-05-06 12:26 | 52.21805 | 5.31283 | 15213 ft | 394 kts | 125° |
| 2026-05-06 12:26 | 52.20244 | 5.34981 | 15899 ft | 397 kts | 124° |
| 2026-05-06 12:26 | 52.18725 | 5.38608 | 16596 ft | 399 kts | 125° |
| 2026-05-06 12:27 | 52.17166 | 5.42292 | 17305 ft | 401 kts | 126° |
| 2026-05-06 12:27 | 52.15565 | 5.46024 | 17983 ft | 404 kts | 126° |
| 2026-05-06 12:27 | 52.13937 | 5.49776 | 18574 ft | 407 kts | 127° |
| 2026-05-06 12:27 | 52.12291 | 5.53550 | 19104 ft | 411 kts | 127° |
| 2026-05-06 12:28 | 52.10622 | 5.57361 | 19622 ft | 415 kts | 127° |
| 2026-05-06 12:28 | 52.08939 | 5.61200 | 20169 ft | 418 kts | 127° |
| 2026-05-06 12:28 | 52.07242 | 5.65064 | 20705 ft | 422 kts | 127° |
| 2026-05-06 12:28 | 52.05504 | 5.68920 | 21214 ft | 425 kts | 130° |
| 2026-05-06 12:29 | 52.03594 | 5.72603 | 21697 ft | 428 kts | 133° |
| 2026-05-06 12:29 | 52.01600 | 5.76216 | 22182 ft | 431 kts | 133° |
| 2026-05-06 12:29 | 51.99592 | 5.79880 | 22643 ft | 435 kts | 133° |
| 2026-05-06 12:29 | 51.97590 | 5.83593 | 23117 ft | 438 kts | 133° |
| 2026-05-06 12:30 | 51.95586 | 5.87338 | 23551 ft | 442 kts | 133° |
| 2026-05-06 12:30 | 51.93565 | 5.91107 | 23968 ft | 444 kts | 132° |
| 2026-05-06 12:30 | 51.91533 | 5.94891 | 24427 ft | 445 kts | 132° |
| 2026-05-06 12:30 | 51.89498 | 5.98673 | 24873 ft | 446 kts | 132° |
| 2026-05-06 12:31 | 51.87454 | 6.02464 | 25275 ft | 448 kts | 132° |
| 2026-05-06 12:31 | 51.85401 | 6.06265 | 25660 ft | 449 kts | 132° |
| 2026-05-06 12:31 | 51.83328 | 6.10076 | 26033 ft | 451 kts | 132° |
| 2026-05-06 12:31 | 51.81251 | 6.13872 | 26409 ft | 452 kts | 132° |
| 2026-05-06 12:32 | 51.79188 | 6.17639 | 26749 ft | 454 kts | 132° |
| 2026-05-06 12:32 | 51.77087 | 6.21471 | 27067 ft | 456 kts | 132° |
| 2026-05-06 12:32 | 51.74980 | 6.25316 | 27428 ft | 458 kts | 132° |
| 2026-05-06 12:32 | 51.72872 | 6.29166 | 27869 ft | 458 kts | 132° |
| 2026-05-06 12:33 | 51.70755 | 6.33030 | 28331 ft | 459 kts | 132° |
| 2026-05-06 12:33 | 51.68648 | 6.36869 | 28978 ft | 454 kts | 132° |
| 2026-05-06 12:33 | 51.66567 | 6.40655 | 29670 ft | 449 kts | 131° |
| 2026-05-06 12:33 | 51.64498 | 6.44413 | 30086 ft | 449 kts | 132° |
| 2026-05-06 12:34 | 51.62422 | 6.48176 | 30356 ft | 450 kts | 132° |
| 2026-05-06 12:34 | 51.60340 | 6.51941 | 30645 ft | 451 kts | 132° |
| 2026-05-06 12:34 | 51.58257 | 6.55705 | 30952 ft | 451 kts | 132° |
| 2026-05-06 12:34 | 51.56166 | 6.59480 | 31225 ft | 452 kts | 132° |
| 2026-05-06 12:35 | 51.54069 | 6.63260 | 31502 ft | 453 kts | 133° |
| 2026-05-06 12:35 | 51.51969 | 6.67041 | 31791 ft | 453 kts | 133° |
| 2026-05-06 12:35 | 51.49866 | 6.70822 | 32076 ft | 454 kts | 133° |
| 2026-05-06 12:35 | 51.47761 | 6.74602 | 32358 ft | 454 kts | 133° |
| 2026-05-06 12:36 | 51.45657 | 6.78378 | 32681 ft | 454 kts | 133° |
| 2026-05-06 12:36 | 51.43568 | 6.82117 | 32965 ft | 455 kts | 133° |
| 2026-05-06 12:36 | 51.41438 | 6.85859 | 33223 ft | 455 kts | 136° |
| 2026-05-06 12:36 | 51.39062 | 6.89193 | 33537 ft | 453 kts | 146° |
| 2026-05-06 12:37 | 51.36424 | 6.91944 | 33875 ft | 451 kts | 149° |
| 2026-05-06 12:37 | 51.33760 | 6.94572 | 34171 ft | 450 kts | 150° |
| 2026-05-06 12:37 | 51.31082 | 6.97193 | 34426 ft | 450 kts | 150° |
| 2026-05-06 12:37 | 51.28415 | 6.99813 | 34674 ft | 451 kts | 150° |
| 2026-05-06 12:38 | 51.25748 | 7.02451 | 34833 ft | 452 kts | 150° |
| 2026-05-06 12:38 | 51.23216 | 7.04968 | 34822 ft | 453 kts | 150° |
| 2026-05-06 12:38 | 51.18171 | 7.10006 | 34807 ft | 450 kts | 150° |
| 2026-05-06 12:39 | 51.12891 | 7.15278 | 34813 ft | 446 kts | 150° |
| 2026-05-06 12:39 | 51.07645 | 7.20498 | 34818 ft | 444 kts | 150° |
| 2026-05-06 12:40 | 51.02406 | 7.25696 | 34823 ft | 443 kts | 150° |
| 2026-05-06 12:40 | 50.98052 | 7.30004 | 34827 ft | 444 kts | 150° |
| 2026-05-06 12:41 | 50.92796 | 7.35191 | 34827 ft | 446 kts | 150° |
| 2026-05-06 12:41 | 50.87519 | 7.40386 | 34822 ft | 448 kts | 150° |
| 2026-05-06 12:42 | 50.82217 | 7.45593 | 34821 ft | 449 kts | 150° |
| 2026-05-06 12:42 | 50.76897 | 7.50805 | 34809 ft | 450 kts | 151° |
| 2026-05-06 12:43 | 50.71568 | 7.56020 | 34804 ft | 451 kts | 150° |
| 2026-05-06 12:43 | 50.66305 | 7.61424 | 34789 ft | 452 kts | 149° |
| 2026-05-06 12:44 | 50.61111 | 7.66854 | 34787 ft | 450 kts | 149° |
| 2026-05-06 12:44 | 50.55888 | 7.72277 | 34789 ft | 449 kts | 149° |
| 2026-05-06 12:45 | 50.50667 | 7.77656 | 34788 ft | 448 kts | 150° |
| 2026-05-06 12:46 | 50.42859 | 7.85664 | 34788 ft | 446 kts | 150° |
| 2026-05-06 12:46 | 50.37663 | 7.90975 | 34795 ft | 446 kts | 150° |
| 2026-05-06 12:47 | 50.32467 | 7.96273 | 34792 ft | 445 kts | 150° |
| 2026-05-06 12:47 | 50.27269 | 8.01560 | 34774 ft | 445 kts | 150° |
| 2026-05-06 12:48 | 50.22081 | 8.06824 | 34777 ft | 445 kts | 150° |
| 2026-05-06 12:48 | 50.16895 | 8.12072 | 34778 ft | 444 kts | 150° |
| 2026-05-06 12:49 | 50.11422 | 8.16342 | 34786 ft | 437 kts | 166° |
| 2026-05-06 12:49 | 50.05555 | 8.18623 | 34788 ft | 435 kts | 169° |
| 2026-05-06 12:50 | 49.99664 | 8.20793 | 34782 ft | 435 kts | 169° |
| 2026-05-06 12:50 | 49.93781 | 8.23002 | 34777 ft | 435 kts | 169° |
| 2026-05-06 12:51 | 49.87910 | 8.25235 | 34774 ft | 434 kts | 169° |
| 2026-05-06 12:51 | 49.82037 | 8.27473 | 34785 ft | 435 kts | 169° |
| 2026-05-06 12:52 | 49.76163 | 8.29706 | 34770 ft | 435 kts | 169° |
| 2026-05-06 12:52 | 49.70328 | 8.31917 | 34772 ft | 434 kts | 169° |
| 2026-05-06 12:53 | 49.64457 | 8.34136 | 34793 ft | 434 kts | 169° |
| 2026-05-06 12:53 | 49.58588 | 8.36348 | 34796 ft | 434 kts | 169° |
| 2026-05-06 12:54 | 49.52717 | 8.38556 | 34801 ft | 435 kts | 169° |
| 2026-05-06 12:54 | 49.46831 | 8.40764 | 34805 ft | 435 kts | 169° |
| 2026-05-06 12:55 | 49.40949 | 8.42965 | 34802 ft | 436 kts | 169° |
| 2026-05-06 12:55 | 49.35055 | 8.45166 | 34800 ft | 436 kts | 169° |
| 2026-05-06 12:56 | 49.29156 | 8.47362 | 34799 ft | 436 kts | 169° |
| 2026-05-06 12:56 | 49.23257 | 8.49554 | 34796 ft | 436 kts | 169° |
| 2026-05-06 12:57 | 49.17353 | 8.51742 | 34798 ft | 436 kts | 170° |
| 2026-05-06 12:57 | 49.11494 | 8.53908 | 34796 ft | 436 kts | 170° |
| 2026-05-06 12:58 | 49.05604 | 8.56081 | 34800 ft | 435 kts | 170° |
| 2026-05-06 12:58 | 48.99678 | 8.57607 | 34811 ft | 429 kts | 181° |
| 2026-05-06 12:59 | 48.93802 | 8.56748 | 34810 ft | 423 kts | 194° |
| 2026-05-06 12:59 | 48.88067 | 8.54833 | 34802 ft | 422 kts | 194° |
| 2026-05-06 13:00 | 48.82330 | 8.52926 | 34808 ft | 421 kts | 194° |
| 2026-05-06 13:00 | 48.76598 | 8.51060 | 34806 ft | 420 kts | 194° |
| 2026-05-06 13:01 | 48.70888 | 8.49222 | 34809 ft | 419 kts | 194° |
| 2026-05-06 13:01 | 48.65181 | 8.47392 | 34806 ft | 419 kts | 194° |
| 2026-05-06 13:02 | 48.59481 | 8.45568 | 34814 ft | 418 kts | 194° |
| 2026-05-06 13:02 | 48.53793 | 8.43752 | 34810 ft | 417 kts | 194° |
| 2026-05-06 13:03 | 48.48117 | 8.41944 | 34814 ft | 417 kts | 194° |
| 2026-05-06 13:03 | 48.42486 | 8.40154 | 34816 ft | 416 kts | 194° |
| 2026-05-06 13:04 | 48.36829 | 8.38359 | 34819 ft | 415 kts | 194° |
| 2026-05-06 13:04 | 48.31176 | 8.36570 | 34831 ft | 415 kts | 194° |
| 2026-05-06 13:05 | 48.28348 | 8.35676 | 34816 ft | 415 kts | 194° |
| 2026-05-06 13:05 | 48.23008 | 8.33992 | 34832 ft | 415 kts | 194° |
| 2026-05-06 13:06 | 48.17438 | 8.31818 | 34822 ft | 413 kts | 202° |
| 2026-05-06 13:06 | 48.12385 | 8.27766 | 34840 ft | 412 kts | 213° |
| 2026-05-06 13:07 | 48.07582 | 8.23075 | 34834 ft | 412 kts | 213° |
| 2026-05-06 13:07 | 48.02768 | 8.18403 | 34827 ft | 413 kts | 213° |
| 2026-05-06 13:08 | 47.97941 | 8.13755 | 34826 ft | 413 kts | 212° |
| 2026-05-06 13:08 | 47.93109 | 8.09125 | 34836 ft | 413 kts | 212° |
| 2026-05-06 13:09 | 47.88273 | 8.04504 | 34848 ft | 413 kts | 212° |
| 2026-05-06 13:09 | 47.83431 | 7.99888 | 34846 ft | 413 kts | 212° |
| 2026-05-06 13:10 | 47.78608 | 7.95299 | 34846 ft | 414 kts | 212° |
| 2026-05-06 13:10 | 47.73759 | 7.90696 | 34858 ft | 414 kts | 212° |
| 2026-05-06 13:11 | 47.68901 | 7.86094 | 34859 ft | 414 kts | 212° |
| 2026-05-06 13:11 | 47.64051 | 7.81511 | 34876 ft | 414 kts | 212° |
| 2026-05-06 13:12 | 47.59194 | 7.76931 | 34879 ft | 414 kts | 212° |
| 2026-05-06 13:12 | 47.54295 | 7.72322 | 34255 ft | 418 kts | 212° |
| 2026-05-06 13:12 | 47.51855 | 7.70029 | 33574 ft | 415 kts | 211° |
| 2026-05-06 13:13 | 47.50519 | 7.68776 | 33120 ft | 415 kts | 211° |
| 2026-05-06 13:13 | 47.48086 | 7.66495 | 32380 ft | 414 kts | 211° |
| 2026-05-06 13:13 | 47.45644 | 7.64208 | 31603 ft | 416 kts | 211° |
| 2026-05-06 13:14 | 47.43197 | 7.61918 | 30822 ft | 417 kts | 211° |
| 2026-05-06 13:14 | 47.40738 | 7.59621 | 30038 ft | 420 kts | 211° |
| 2026-05-06 13:14 | 47.38253 | 7.57301 | 29040 ft | 423 kts | 211° |
| 2026-05-06 13:14 | 47.35780 | 7.54995 | 28431 ft | 418 kts | 211° |
| 2026-05-06 13:15 | 47.33331 | 7.52713 | 27789 ft | 414 kts | 211° |
| 2026-05-06 13:15 | 47.30912 | 7.50461 | 27156 ft | 409 kts | 211° |
| 2026-05-06 13:15 | 47.28513 | 7.48231 | 26574 ft | 406 kts | 211° |
| 2026-05-06 13:15 | 47.26135 | 7.46022 | 25997 ft | 402 kts | 210° |
| 2026-05-06 13:16 | 47.23774 | 7.43832 | 25405 ft | 400 kts | 210° |
| 2026-05-06 13:16 | 47.21427 | 7.41658 | 24824 ft | 398 kts | 210° |
| 2026-05-06 13:16 | 47.19087 | 7.39492 | 24231 ft | 397 kts | 210° |
| 2026-05-06 13:16 | 47.16846 | 7.37117 | 23632 ft | 398 kts | 217° |
| 2026-05-06 13:17 | 47.14856 | 7.34251 | 22672 ft | 407 kts | 227° |
| 2026-05-06 13:17 | 47.13097 | 7.30976 | 21843 ft | 409 kts | 230° |
| 2026-05-06 13:17 | 47.11371 | 7.27683 | 21221 ft | 405 kts | 230° |
| 2026-05-06 13:17 | 47.09654 | 7.24434 | 20680 ft | 399 kts | 229° |
| 2026-05-06 13:18 | 47.07947 | 7.21256 | 20136 ft | 394 kts | 229° |
| 2026-05-06 13:18 | 47.06253 | 7.18127 | 19575 ft | 390 kts | 229° |
| 2026-05-06 13:18 | 47.04570 | 7.15037 | 19025 ft | 385 kts | 229° |
| 2026-05-06 13:18 | 47.02903 | 7.11989 | 18497 ft | 381 kts | 229° |
| 2026-05-06 13:19 | 47.01251 | 7.08975 | 17930 ft | 378 kts | 229° |
| 2026-05-06 13:19 | 46.99634 | 7.06026 | 17350 ft | 374 kts | 230° |
| 2026-05-06 13:19 | 46.97996 | 7.03037 | 16762 ft | 370 kts | 230° |
| 2026-05-06 13:19 | 46.96408 | 7.00142 | 16091 ft | 369 kts | 230° |
| 2026-05-06 13:20 | 46.94789 | 6.97193 | 15527 ft | 365 kts | 230° |
| 2026-05-06 13:20 | 46.93223 | 6.94346 | 14985 ft | 362 kts | 230° |
| 2026-05-06 13:20 | 46.91591 | 6.91577 | 14438 ft | 358 kts | 222° |
| 2026-05-06 13:20 | 46.89548 | 6.89558 | 13940 ft | 354 kts | 206° |
| 2026-05-06 13:21 | 46.87303 | 6.88147 | 13408 ft | 351 kts | 203° |
| 2026-05-06 13:21 | 46.85034 | 6.86825 | 12851 ft | 348 kts | 203° |
| 2026-05-06 13:21 | 46.82801 | 6.85534 | 12348 ft | 343 kts | 203° |
| 2026-05-06 13:21 | 46.80596 | 6.84246 | 11939 ft | 337 kts | 203° |
| 2026-05-06 13:22 | 46.78434 | 6.82968 | 11473 ft | 333 kts | 204° |
| 2026-05-06 13:22 | 46.76295 | 6.81693 | 10968 ft | 331 kts | 204° |
| 2026-05-06 13:22 | 46.74194 | 6.80435 | 10769 ft | 320 kts | 204° |
| 2026-05-06 13:22 | 46.72171 | 6.79224 | 10612 ft | 308 kts | 204° |
| 2026-05-06 13:23 | 46.70223 | 6.78057 | 10488 ft | 298 kts | 204° |
| 2026-05-06 13:23 | 46.68336 | 6.76929 | 10355 ft | 289 kts | 204° |
| 2026-05-06 13:23 | 46.66507 | 6.75822 | 10225 ft | 279 kts | 207° |
| 2026-05-06 13:23 | 46.64968 | 6.74210 | 10098 ft | 271 kts | 226° |
| 2026-05-06 13:24 | 46.63703 | 6.72203 | 10006 ft | 268 kts | 229° |
| 2026-05-06 13:24 | 46.62468 | 6.70169 | 9875 ft | 270 kts | 229° |
| 2026-05-06 13:24 | 46.61206 | 6.68085 | 9545 ft | 277 kts | 229° |
| 2026-05-06 13:24 | 46.59926 | 6.65979 | 9230 ft | 277 kts | 229° |
| 2026-05-06 13:25 | 46.58649 | 6.63890 | 8904 ft | 275 kts | 229° |
| 2026-05-06 13:25 | 46.57388 | 6.61835 | 8596 ft | 269 kts | 230° |
| 2026-05-06 13:25 | 46.56161 | 6.59840 | 8299 ft | 261 kts | 229° |
| 2026-05-06 13:25 | 46.54984 | 6.57929 | 8010 ft | 254 kts | 230° |
| 2026-05-06 13:26 | 46.53823 | 6.56048 | 7751 ft | 245 kts | 230° |
| 2026-05-06 13:26 | 46.52716 | 6.54256 | 7511 ft | 232 kts | 230° |
| 2026-05-06 13:26 | 46.51677 | 6.52576 | 7476 ft | 216 kts | 230° |
| 2026-05-06 13:26 | 46.50687 | 6.50975 | 7342 ft | 210 kts | 230° |
| 2026-05-06 13:27 | 46.49726 | 6.49422 | 7239 ft | 203 kts | 230° |
| 2026-05-06 13:27 | 46.48797 | 6.47922 | 7152 ft | 196 kts | 230° |
| 2026-05-06 13:27 | 46.47890 | 6.46487 | 7065 ft | 190 kts | 229° |
| 2026-05-06 13:27 | 46.46978 | 6.45122 | 6967 ft | 190 kts | 228° |
| 2026-05-06 13:28 | 46.46042 | 6.43733 | 6773 ft | 192 kts | 228° |
| 2026-05-06 13:28 | 46.45110 | 6.42351 | 6585 ft | 191 kts | 228° |
| 2026-05-06 13:28 | 46.44181 | 6.40975 | 6390 ft | 191 kts | 228° |
| 2026-05-06 13:28 | 46.43250 | 6.39595 | 6163 ft | 190 kts | 228° |
| 2026-05-06 13:29 | 46.42334 | 6.38238 | 5971 ft | 187 kts | 228° |
| 2026-05-06 13:29 | 46.41433 | 6.36903 | 5753 ft | 183 kts | 227° |
| 2026-05-06 13:29 | 46.40545 | 6.35590 | 5530 ft | 181 kts | 227° |
| 2026-05-06 13:29 | 46.39673 | 6.34298 | 5337 ft | 178 kts | 227° |
| 2026-05-06 13:30 | 46.38811 | 6.33022 | 5132 ft | 177 kts | 227° |
| 2026-05-06 13:30 | 46.37952 | 6.31741 | 4952 ft | 177 kts | 229° |
| 2026-05-06 13:30 | 46.37104 | 6.30457 | 4815 ft | 181 kts | 226° |
| 2026-05-06 13:30 | 46.36205 | 6.29121 | 4586 ft | 188 kts | 227° |
| 2026-05-06 13:31 | 46.35287 | 6.27769 | 4309 ft | 188 kts | 226° |
| 2026-05-06 13:31 | 46.34686 | 6.26887 | 4152 ft | 183 kts | 226° |
| 2026-05-06 13:31 | 46.33811 | 6.25601 | 3902 ft | 174 kts | 225° |
| 2026-05-06 13:31 | 46.32741 | 6.24030 | 3611 ft | 157 kts | 226° |
| 2026-05-06 13:32 | 46.32003 | 6.22946 | 3429 ft | 150 kts | 226° |
| 2026-05-06 13:32 | 46.31273 | 6.21873 | 3226 ft | 148 kts | 226° |
| 2026-05-06 13:32 | 46.30552 | 6.20813 | 3016 ft | 147 kts | 225° |
| 2026-05-06 13:32 | 46.30066 | 6.20099 | 2866 ft | 148 kts | 225° |
| 2026-05-06 13:33 | 46.29358 | 6.19059 | 2659 ft | 145 kts | 225° |
| 2026-05-06 13:33 | 46.28656 | 6.18026 | 2443 ft | 143 kts | 223° |
| 2026-05-06 13:33 | 46.27961 | 6.17003 | 2237 ft | 141 kts | 225° |
| 2026-05-06 13:33 | 46.27263 | 6.15978 | 2056 ft | 145 kts | 224° |
| 2026-05-06 13:34 | 46.26563 | 6.14944 | 1844 ft | 142 kts | 225° |
| 2026-05-06 13:34 | 46.25876 | 6.13942 | 1635 ft | 138 kts | 226° |
| 2026-05-06 13:34 | 46.25206 | 6.12948 | 1453 ft | 139 kts | 224° |
| 2026-05-06 13:34 | 46.24543 | 6.11978 | 1371 ft | 124 kts | 225° |
| 2026-05-06 13:35 | 46.24045 | 6.11246 | 1377 ft | 80 kts | 226° |
| 2026-05-06 13:35 | 46.23758 | 6.10834 | 1380 ft | 32 kts | 216° |
| 2026-05-06 13:35 | 46.23604 | 6.10730 | 1381 ft | 12 kts | 195° |
| 2026-05-06 13:35 | 46.23527 | 6.10700 | 1386 ft | 11 kts | 194° |
| 2026-05-06 13:36 | 46.23451 | 6.10672 | 1389 ft | 11 kts | 197° |
| 2026-05-06 13:36 | 46.23390 | 6.10628 | 1388 ft | 8 kts | 217° |
| 2026-05-06 13:36 | 46.23357 | 6.10581 | 1391 ft | 7 kts | 225° |
| 2026-05-06 13:36 | 46.23325 | 6.10535 | 1399 ft | 6 kts | 225° |
| 2026-05-06 13:37 | 46.23289 | 6.10517 | 1397 ft | 6 kts | 148° |
| 2026-05-06 13:37 | 46.23256 | 6.10559 | 1392 ft | 6 kts | 134° |
| 2026-05-06 13:37 | 46.23243 | 6.10614 | 1397 ft | 6 kts | 90° |
| 2026-05-06 13:37 | 46.23243 | 6.10661 | 1392 ft | 4 kts | 90° |
| 2026-05-06 13:38 | 46.23243 | 6.10684 | 1392 ft | 0 kts | 90° |
| 2026-05-06 13:38 | 46.23243 | 6.10689 | 1392 ft | 0 kts | 90° |